Terminal Aerodrome Forecast
Issued by NWS Denver/Boulder, CO

Home | Current Version | Previous Version | Text Only | Print | Product List | Glossary On
Versions: 1 2 3 4 5 6 7 8 9 10 11 12 13 14 15 16 17 18 19 20 21 22 23 24 25 26 27 28 29 30 31 32 33 34 35 36 37 38 39 40 41 42 43 44 45 46 47 48 49 50
000
FTUS45 KBOU 281917 AAA
TAFDEN
TAF AMD
KDEN 281917Z 2819/0124 33006KT P6SM FEW010 SCT080 BKN180
     FM282030 03006KT P6SM VCSH SCT010 BKN080
     FM282300 05005KT 4SM -SN BR SCT008 SCT025 OVC040
      TEMPO 0101/0105 1SM -SN BR OVC007
     FM010500 07005KT 4SM -SN BR BKN006 OVC012
     FM010800 07005KT 5SM BR VCSH SCT008 OVC020
     FM011400 06005KT P6SM VCSH SCT015 OVC025
     FM011800 08006KT P6SM VCSH SCT018 BKN035 BKN050=

USA.gov is the U.S. government's official web portal to all federal, state and local government web resources and services.